Terminal Aerodrome Forecast
Issued by NWS

Home | Current Version | Previous Version | Text Only | Print | Product List | Glossary On
Versions: 1 2 3 4 5 6 7 8 9 10 11 12 13 14 15 16 17
000
FTUS43 KGRR 251801 AAA
TAFMKG
TAF AMD
KMKG 251801Z 2518/2618 23015G30KT 6SM -SHRA BKN035
     FM252100 23015G25KT P6SM SCT035 BKN050
     FM260000 22012KT P6SM FEW015 SCT040
     FM260900 19010KT P6SM OVC012=

USA.gov is the U.S. government's official web portal to all federal, state and local government web resources and services.